Time;durP1;ratioP1;P1;durP2;ratioP2;P2;SDS_P1;SDS_P2;PMS_P1;PMS_P2;Temp;Humidity;BMP_temperature;BMP_pressure;BME280_temperature;BME280_humidity;BME280_pressure;Samples;Min_cycle;Max_cycle;Signal;HPM_P1;HPM_P2
2022/09/08 00:02:16;;;;;;;9.98;8.98;;;18.90;99.90;;;;;;12438132;28;20050;-32
2022/09/08 00:08:20;;;;;;;9.93;8.45;;;18.90;99.90;;;;;;12430649;28;20238;-32
2022/09/08 00:14:22;;;;;;;11.15;9.02;;;18.80;99.90;;;;;;12429976;28;20084;-32
2022/09/08 00:20:24;;;;;;;9.60;8.43;;;18.70;99.90;;;;;;12421998;28;20077;-32
2022/09/08 00:26:26;;;;;;;12.38;9.00;;;18.60;99.90;;;;;;12438455;28;20397;-32
2022/09/08 00:32:28;;;;;;;12.07;9.65;;;18.60;99.90;;;;;;12431210;28;20045;-33
2022/09/08 00:38:31;;;;;;;9.23;8.20;;;18.60;99.90;;;;;;12430548;28;20405;-33
2022/09/08 00:44:47;;;;;;;11.30;8.88;;;18.50;99.90;;;;;;12434566;28;20046;-32
2022/09/08 00:50:49;;;;;;;9.77;8.40;;;18.50;99.90;;;;;;12420569;28;20038;-32
2022/09/08 00:56:53;;;;;;;10.45;8.38;;;18.40;99.90;;;;;;12435284;28;20057;-32
2022/09/08 01:02:57;;;;;;;11.02;9.82;;;18.30;99.90;;;;;;12433431;28;20046;-32
2022/09/08 01:15:28;;;;;;;14.32;11.02;;;18.20;99.90;;;;;;12429688;28;20049;-32
2022/09/08 01:22:03;;;;;;;11.30;9.90;;;18.20;99.90;;;;;;12438765;28;20057;-32
2022/09/08 01:28:07;;;;;;;;;;;18.20;99.90;;;;;;12436881;28;20435;-32
2022/09/08 01:34:10;;;;;;;12.48;10.77;;;18.10;99.90;;;;;;12419512;28;19979;-32
2022/09/08 01:40:11;;;;;;;14.23;10.98;;;18.20;99.90;;;;;;12418154;28;20413;-32
2022/09/08 01:46:13;;;;;;;13.65;10.18;;;18.10;99.90;;;;;;12418365;28;20391;-32
2022/09/08 01:52:15;;;;;;;11.80;9.95;;;18.10;99.90;;;;;;12410782;28;20129;-32
2022/09/08 01:58:17;;;;;;;11.77;10.38;;;18.00;99.90;;;;;;12416604;28;20133;-32
2022/09/08 02:04:19;;;;;;;13.65;12.25;;;17.90;99.90;;;;;;12414088;28;20053;-32
2022/09/08 02:10:22;;;;;;;15.25;12.40;;;17.80;99.90;;;;;;12412349;28;20046;-32
2022/09/08 02:16:23;;;;;;;18.17;14.80;;;17.80;99.90;;;;;;12411460;28;20421;-32
2022/09/08 02:22:26;;;;;;;18.85;15.25;;;17.60;99.90;;;;;;12412144;28;20413;-32
2022/09/08 02:28:28;;;;;;;18.42;15.43;;;17.50;99.90;;;;;;12393204;28;20395;-33
2022/09/08 02:34:30;;;;;;;21.05;15.10;;;17.60;99.90;;;;;;12439024;28;20121;-32
2022/09/08 02:40:32;;;;;;;12.75;11.05;;;17.70;99.90;;;;;;12433176;28;20046;-32
2022/09/08 02:46:33;;;;;;;13.27;11.90;;;18.00;99.90;;;;;;12433966;28;20492;-32
2022/09/08 02:52:35;;;;;;;11.77;10.57;;;17.90;99.90;;;;;;12433687;28;20046;-32
2022/09/08 02:58:37;;;;;;;12.95;9.60;;;17.90;99.90;;;;;;12418439;28;20050;-32
2022/09/08 03:04:39;;;;;;;12.48;9.38;;;17.60;99.90;;;;;;12435719;28;20425;-32
2022/09/08 03:10:42;;;;;;;11.27;9.85;;;17.70;99.90;;;;;;12425381;28;20490;-32
2022/09/08 03:16:45;;;;;;;13.02;10.27;;;17.50;99.90;;;;;;12434388;28;20499;-32
2022/09/08 03:22:48;;;;;;;12.63;10.80;;;17.40;99.90;;;;;;12419202;28;20050;-32
2022/09/08 03:28:50;;;;;;;12.52;10.48;;;17.30;99.90;;;;;;12418770;28;20041;-32
2022/09/08 03:34:51;;;;;;;11.45;10.25;;;17.30;99.90;;;;;;12393005;28;20387;-32
2022/09/08 03:40:53;;;;;;;12.50;10.25;;;17.30;99.90;;;;;;12388595;28;20053;-32
2022/09/08 03:46:55;;;;;;;12.05;9.73;;;17.30;99.90;;;;;;12398375;28;20279;-32
2022/09/08 03:52:57;;;;;;;11.68;9.55;;;17.40;99.90;;;;;;12387253;28;20082;-32
2022/09/08 03:58:59;;;;;;;11.05;9.60;;;17.40;99.90;;;;;;12402049;28;20045;-32
2022/09/08 04:05:00;;;;;;;10.27;9.27;;;17.30;99.90;;;;;;12390922;28;20049;-32
2022/09/08 04:11:03;;;;;;;9.57;8.45;;;17.30;99.90;;;;;;12388637;28;20046;-32
2022/09/08 04:17:05;;;;;;;12.13;8.63;;;17.30;99.90;;;;;;12375556;28;20046;-32
2022/09/08 04:23:08;;;;;;;12.38;8.82;;;17.20;99.90;;;;;;12412520;28;20042;-32
2022/09/08 04:29:10;;;;;;;11.13;9.02;;;17.30;99.90;;;;;;12417073;28;20410;-32
2022/09/08 04:35:11;;;;;;;10.95;8.60;;;17.20;99.90;;;;;;12411603;28;20053;-32
2022/09/08 04:41:17;;;;;;;11.30;8.88;;;17.10;99.90;;;;;;12430665;28;20057;-32
2022/09/08 04:47:18;;;;;;;12.48;9.55;;;17.10;99.90;;;;;;12429489;28;20046;-32
2022/09/08 04:53:22;;;;;;;10.90;9.73;;;17.20;99.90;;;;;;12438000;28;20409;-32
2022/09/08 04:59:25;;;;;;;9.90;8.90;;;17.20;99.90;;;;;;12442126;28;20137;-32
2022/09/08 05:05:28;;;;;;;14.37;9.33;;;17.20;99.90;;;;;;12433035;28;20042;-32
2022/09/08 05:11:32;;;;;;;12.80;10.05;;;17.30;99.90;;;;;;12433976;28;20407;-32
2022/09/08 05:17:33;;;;;;;12.15;10.00;;;17.20;99.90;;;;;;12417933;28;20390;-32
2022/09/08 05:23:36;;;;;;;11.82;10.50;;;17.10;99.90;;;;;;12420187;28;20061;-32
2022/09/08 05:29:37;;;;;;;15.88;9.60;;;17.10;99.90;;;;;;12414773;28;20057;-32
2022/09/08 05:35:39;;;;;;;12.45;9.70;;;17.00;99.90;;;;;;12404798;28;20152;-32
2022/09/08 05:41:41;;;;;;;13.50;9.63;;;17.20;99.90;;;;;;12392937;28;20058;-32
2022/09/08 05:47:43;;;;;;;12.75;9.32;;;17.20;99.90;;;;;;12397437;28;20049;-32
2022/09/08 05:53:45;;;;;;;12.90;9.68;;;17.10;99.90;;;;;;12401373;28;20050;-32
2022/09/08 05:59:47;;;;;;;13.80;10.77;;;17.20;99.90;;;;;;12396784;28;20050;-32
2022/09/08 06:05:49;;;;;;;13.02;9.93;;;17.20;99.90;;;;;;12399631;28;20148;-32
2022/09/08 06:11:51;;;;;;;13.85;10.35;;;17.20;99.90;;;;;;12392522;28;20045;-32
2022/09/08 06:17:53;;;;;;;10.02;8.93;;;17.10;99.90;;;;;;12391678;28;20108;-32
2022/09/08 06:24:01;;;;;;;10.63;9.52;;;17.10;99.90;;;;;;12407286;28;20351;-32
2022/09/08 06:30:07;;;;;;;11.63;10.35;;;17.20;99.90;;;;;;12418977;28;20045;-32
2022/09/08 06:36:35;;;;;;;11.13;9.93;;;17.30;99.90;;;;;;12432907;28;20064;-32
2022/09/08 06:42:53;;;;;;;12.70;11.35;;;17.20;99.90;;;;;;12415341;28;20041;-32
2022/09/08 06:48:55;;;;;;;16.42;12.25;;;17.20;99.90;;;;;;12434486;28;20520;-32
2022/09/08 06:55:11;;;;;;;15.68;13.18;;;17.20;99.90;;;;;;12436785;28;20057;-32
2022/09/08 07:01:20;;;;;;;11.80;10.35;;;17.30;99.90;;;;;;12433476;28;20052;-32
2022/09/08 07:08:04;;;;;;;12.77;10.70;;;17.50;99.90;;;;;;12432097;28;20042;-32
2022/09/08 07:14:33;;;;;;;13.75;11.18;;;17.60;99.90;;;;;;12435628;28;20085;-32
2022/09/08 07:20:35;;;;;;;19.50;13.38;;;17.60;99.90;;;;;;12419872;28;20454;-32
2022/09/08 07:26:52;;;;;;;16.85;13.40;;;17.50;99.90;;;;;;12424271;28;20343;-32
2022/09/08 07:33:05;;;;;;;14.85;11.75;;;17.40;99.90;;;;;;12405947;28;20057;-32
2022/09/08 07:39:34;;;;;;;14.57;10.27;;;17.60;99.90;;;;;;12386564;28;20081;-32
2022/09/08 07:45:57;;;;;;;14.25;10.82;;;17.90;99.90;;;;;;12389796;28;20042;-33
2022/09/08 07:52:11;;;;;;;11.63;10.02;;;18.00;99.90;;;;;;12391766;28;20442;-32
2022/09/08 07:58:16;;;;;;;;;;;18.00;99.90;;;;;;12391852;28;20092;-32
2022/09/08 08:04:17;;;;;;;;;;;18.10;99.90;;;;;;12387971;28;19926;-32
2022/09/08 08:10:33;;;;;;;13.80;9.82;;;18.00;99.90;;;;;;12397383;28;20399;-32
2022/09/08 08:16:34;;;;;;;12.65;10.52;;;17.90;99.90;;;;;;12369466;28;20811;-32
2022/09/08 08:22:59;;;;;;;11.63;8.23;;;17.60;99.90;;;;;;12412557;28;20409;-32
2022/09/08 08:29:36;;;;;;;10.63;7.82;;;17.70;99.90;;;;;;12418651;28;20129;-32
2022/09/08 08:35:57;;;;;;;9.15;6.65;;;17.60;99.90;;;;;;12430894;28;20053;-32
2022/09/08 08:42:51;;;;;;;7.60;5.18;;;17.60;99.90;;;;;;12415925;28;20243;-32
2022/09/08 08:49:16;;;;;;;7.68;5.78;;;17.70;99.90;;;;;;12428474;28;20056;-33
2022/09/08 08:55:56;;;;;;;9.82;6.28;;;17.60;99.90;;;;;;12425814;28;20057;-32
2022/09/08 09:02:16;;;;;;;7.47;5.60;;;17.30;99.90;;;;;;12431137;28;20068;-32
2022/09/08 09:08:57;;;;;;;9.48;6.82;;;17.40;99.90;;;;;;12431005;28;20077;-32
2022/09/08 09:15:17;;;;;;;9.93;6.93;;;17.30;99.90;;;;;;12434489;28;20054;-33
2022/09/08 09:22:05;;;;;;;9.48;7.15;;;17.40;99.90;;;;;;12412259;28;20046;-32
2022/09/08 09:28:36;;;;;;;9.13;7.55;;;17.40;99.90;;;;;;12399892;28;20608;-33
2022/09/08 09:35:01;;;;;;;12.98;7.90;;;17.30;99.90;;;;;;12384321;28;20050;-33
2022/09/08 09:41:37;;;;;;;10.65;7.22;;;17.30;99.90;;;;;;12382463;28;20416;-32
2022/09/08 09:48:00;;;;;;;10.75;8.82;;;17.20;99.90;;;;;;12391891;28;20049;-33
2022/09/08 09:54:05;;;;;;;12.95;9.30;;;16.90;99.90;;;;;;12401910;28;20430;-33
2022/09/08 10:00:13;;;;;;;14.23;10.13;;;16.80;99.90;;;;;;12400521;28;20180;-33
2022/09/08 10:06:23;;;;;;;13.00;9.15;;;16.90;99.90;;;;;;12359157;28;20213;-32
2022/09/08 10:12:55;;;;;;;11.50;8.75;;;17.00;99.90;;;;;;12406406;28;20053;-32
2022/09/08 10:19:43;;;;;;;10.77;9.02;;;17.00;99.90;;;;;;12401411;28;20054;-32
2022/09/08 10:26:22;;;;;;;11.73;9.98;;;17.00;99.90;;;;;;12395879;28;20062;-33
2022/09/08 10:33:00;;;;;;;11.65;9.32;;;16.90;99.90;;;;;;12426079;28;20042;-32
2022/09/08 10:39:28;;;;;;;9.90;8.88;;;16.90;99.90;;;;;;12436460;28;20064;-32
2022/09/08 10:45:52;;;;;;;4.90;3.90;;;17.00;99.90;;;;;;12426254;28;20039;-32
2022/09/08 10:52:21;;;;;;;7.55;4.70;;;16.90;99.90;;;;;;12426156;28;20054;-32
2022/09/08 10:58:58;;;;;;;6.70;5.20;;;16.80;99.90;;;;;;12435883;28;20041;-32
2022/09/08 11:05:30;;;;;;;6.63;4.88;;;16.90;99.90;;;;;;12414718;28;20042;-32
2022/09/08 11:11:32;;;;;;;6.20;5.60;;;17.00;99.90;;;;;;12431193;28;20057;-32
2022/09/08 11:17:43;;;;;;;5.85;4.80;;;17.20;99.90;;;;;;12434714;28;20393;-32
2022/09/08 11:24:14;;;;;;;7.25;5.00;;;17.30;99.90;;;;;;12434212;28;20065;-32
2022/09/08 11:30:33;;;;;;;7.50;6.70;;;17.30;99.90;;;;;;12432561;28;20064;-32
2022/09/08 11:36:52;;;;;;;8.15;7.22;;;17.30;99.90;;;;;;12427627;28;20046;-32
2022/09/08 11:43:15;;;;;;;11.43;8.55;;;17.30;99.90;;;;;;12439584;28;20053;-32
2022/09/08 11:49:33;;;;;;;8.82;7.93;;;17.30;99.90;;;;;;12435581;28;20045;-32
2022/09/08 11:55:54;;;;;;;8.88;8.05;;;17.40;99.90;;;;;;12424498;28;20049;-32
2022/09/08 12:02:19;;;;;;;11.77;9.55;;;17.20;99.90;;;;;;12432006;28;20486;-32
2022/09/08 12:08:47;;;;;;;10.52;8.68;;;17.40;99.90;;;;;;12388527;28;20049;-32
2022/09/08 12:15:03;;;;;;;10.55;8.77;;;17.30;99.90;;;;;;12425810;28;20056;-33
2022/09/08 12:21:10;;;;;;;11.52;8.27;;;17.30;99.90;;;;;;12431009;28;20774;-32
2022/09/08 12:27:36;;;;;;;14.80;9.70;;;17.30;99.90;;;;;;12430537;28;20046;-32
2022/09/08 12:33:44;;;;;;;6.05;5.10;;;17.00;99.90;;;;;;12434612;28;20732;-32
2022/09/08 12:40:08;;;;;;;8.60;5.57;;;16.90;99.90;;;;;;12432399;28;20064;-32
2022/09/08 12:46:35;;;;;;;6.87;5.63;;;16.80;99.90;;;;;;12429690;28;20049;-32
2022/09/08 12:53:03;;;;;;;4.93;3.67;;;16.80;99.90;;;;;;12436213;28;20386;-32
2022/09/08 12:59:32;;;;;;;4.45;3.75;;;16.60;99.90;;;;;;12426614;28;20453;-32
2022/09/08 13:06:06;;;;;;;4.00;3.33;;;16.60;99.90;;;;;;12431216;28;20111;-32
2022/09/08 13:12:08;;;;;;;5.25;3.72;;;16.60;99.90;;;;;;12425518;28;20049;-32
2022/09/08 13:18:27;;;;;;;6.72;4.78;;;16.70;99.90;;;;;;12443988;28;20438;-32
2022/09/08 13:24:41;;;;;;;4.50;3.65;;;16.80;99.90;;;;;;12437760;28;20112;-32
2022/09/08 13:31:19;;;;;;;2.53;2.10;;;17.30;99.90;;;;;;12437655;28;20050;-32
2022/09/08 13:37:54;;;;;;;2.10;1.60;;;17.60;99.90;;;;;;12443846;28;20053;-32
2022/09/08 13:44:24;;;;;;;3.33;1.60;;;17.30;99.90;;;;;;12440712;28;20088;-32
2022/09/08 13:50:32;;;;;;;4.68;1.60;;;17.40;99.90;;;;;;12435046;28;20050;-32
2022/09/08 13:56:58;;;;;;;3.65;1.80;;;17.40;99.90;;;;;;12439886;28;20042;-32
2022/09/08 14:03:06;;;;;;;2.72;1.98;;;17.50;99.90;;;;;;12434113;28;20100;-32
2022/09/08 14:09:31;;;;;;;3.67;1.95;;;17.40;99.90;;;;;;12431537;28;20111;-33
2022/09/08 14:15:46;;;;;;;5.88;2.80;;;17.50;99.90;;;;;;12440544;28;20068;-33
2022/09/08 14:22:04;;;;;;;5.53;2.45;;;18.00;99.90;;;;;;12437406;28;20454;-32
2022/09/08 14:28:30;;;;;;;6.57;2.35;;;18.60;99.90;;;;;;12435809;28;20046;-32
2022/09/08 14:35:02;;;;;;;4.45;2.20;;;18.50;99.90;;;;;;12426217;28;20046;-33
2022/09/08 14:41:08;;;;;;;3.08;1.10;;;18.50;99.90;;;;;;12430953;28;20057;-33
2022/09/08 14:47:25;;;;;;;2.90;1.10;;;18.70;99.90;;;;;;12432767;28;20477;-36
2022/09/08 14:53:48;;;;;;;4.72;1.40;;;18.80;99.90;;;;;;12425453;28;20046;-36
2022/09/08 15:00:16;;;;;;;2.00;1.17;;;19.10;99.90;;;;;;12428263;28;20413;-37
2022/09/08 15:06:35;;;;;;;3.13;1.63;;;19.40;99.90;;;;;;12432235;28;20057;-37
2022/09/08 15:12:52;;;;;;;3.83;1.30;;;20.20;99.90;;;;;;12433090;28;20041;-37
2022/09/08 15:19:18;;;;;;;2.63;1.58;;;20.00;99.90;;;;;;12436225;28;20054;-37
2022/09/08 15:25:36;;;;;;;2.35;1.52;;;20.40;99.90;;;;;;12434711;28;20042;-40
2022/09/08 15:31:57;;;;;;;4.35;1.60;;;20.40;99.90;;;;;;12433809;28;20041;-37
2022/09/08 15:38:24;;;;;;;3.75;1.58;;;20.10;99.90;;;;;;12427320;28;20046;-36
2022/09/08 15:45:07;;;;;;;4.07;1.65;;;20.10;99.90;;;;;;12430357;28;20068;-37
2022/09/08 15:51:26;;;;;;;5.72;1.92;;;19.70;99.90;;;;;;12397144;28;20100;-37
2022/09/08 15:57:55;;;;;;;2.85;1.10;;;19.30;99.90;;;;;;12425294;28;20076;-37
2022/09/08 16:04:19;;;;;;;5.30;2.20;;;19.10;99.90;;;;;;12428922;28;20045;-37
2022/09/08 16:10:23;;;;;;;2.70;1.60;;;19.00;99.90;;;;;;12415545;28;20038;-37
2022/09/08 16:16:50;;;;;;;2.28;1.70;;;19.10;99.90;;;;;;12428326;28;20045;-37
2022/09/08 16:22:56;;;;;;;4.03;1.63;;;19.70;99.90;;;;;;12427747;28;20065;-37
2022/09/08 16:29:22;;;;;;;6.93;2.63;;;20.10;99.90;;;;;;12415965;28;20045;-38
2022/09/08 16:35:27;;;;;;;6.32;2.40;;;20.30;99.90;;;;;;12418833;28;20092;-38
2022/09/08 16:41:57;;;;;;;3.97;2.60;;;20.20;99.90;;;;;;12419218;28;20072;-37
2022/09/08 16:48:44;;;;;;;4.78;2.47;;;19.80;99.90;;;;;;12423410;28;20144;-37
2022/09/08 16:55:03;;;;;;;3.50;2.10;;;19.40;99.90;;;;;;12364496;28;20536;-40
2022/09/08 17:01:20;;;;;;;3.58;1.60;;;19.00;99.90;;;;;;12424472;28;20045;-37
2022/09/08 17:07:30;;;;;;;4.07;1.88;;;18.80;99.90;;;;;;12434851;28;20064;-37
2022/09/08 17:13:33;;;;;;;5.05;2.13;;;18.70;99.90;;;;;;12440102;28;20504;-36
2022/09/08 17:19:41;;;;;;;6.43;2.00;;;18.50;99.90;;;;;;12439699;28;20065;-36
2022/09/08 17:25:59;;;;;;;6.00;2.25;;;18.30;99.90;;;;;;12435292;28;20061;-37
2022/09/08 17:32:06;;;;;;;4.40;2.25;;;18.20;99.90;;;;;;12438518;28;20057;-36
2022/09/08 17:38:26;;;;;;;5.22;2.20;;;18.10;99.90;;;;;;12442169;28;20053;-36
2022/09/08 17:44:38;;;;;;;3.72;2.33;;;17.90;99.90;;;;;;12440896;28;20096;-37
2022/09/08 17:50:46;;;;;;;5.97;3.13;;;17.80;99.90;;;;;;12434467;28;20046;-37
2022/09/08 17:57:25;;;;;;;5.35;3.25;;;17.60;99.90;;;;;;12430095;28;20061;-36
2022/09/08 18:04:01;;;;;;;6.65;3.05;;;17.70;99.90;;;;;;12424641;28;20501;-37
2022/09/08 18:10:36;;;;;;;3.60;2.50;;;17.80;99.90;;;;;;12433919;28;20141;-37
2022/09/08 18:16:40;;;;;;;7.43;3.22;;;17.60;99.90;;;;;;12395721;28;20065;-36
2022/09/08 18:22:53;;;;;;;6.55;3.00;;;17.50;99.90;;;;;;12436093;28;20054;-37
2022/09/08 18:29:14;;;;;;;5.07;3.40;;;17.60;99.90;;;;;;12437252;28;20195;-37
2022/09/08 18:35:44;;;;;;;6.57;3.38;;;17.50;99.90;;;;;;12438104;28;20080;-36
2022/09/08 18:42:16;;;;;;;4.93;3.60;;;17.40;99.90;;;;;;12438500;28;20468;-36
2022/09/08 18:48:45;;;;;;;5.32;4.00;;;17.20;99.90;;;;;;12435215;28;20423;-37
2022/09/08 18:54:55;;;;;;;6.35;3.80;;;17.30;99.90;;;;;;12382348;28;20151;-37
2022/09/08 19:01:01;;;;;;;7.90;4.00;;;17.20;99.90;;;;;;12426545;28;20042;-37
2022/09/08 19:07:18;;;;;;;6.53;4.05;;;17.10;99.90;;;;;;12410623;28;20057;-36
2022/09/08 19:13:29;;;;;;;6.88;4.45;;;16.90;99.90;;;;;;12417015;28;20041;-36
2022/09/08 19:19:35;;;;;;;5.07;3.50;;;16.90;99.90;;;;;;12432927;28;20099;-38
2022/09/08 19:25:39;;;;;;;5.05;3.45;;;16.80;99.90;;;;;;12427288;28;20057;-36
2022/09/08 19:31:53;;;;;;;6.00;2.95;;;16.90;99.90;;;;;;12437735;28;20400;-36
2022/09/08 19:38:05;;;;;;;6.10;2.63;;;16.90;99.90;;;;;;12432273;28;20496;-37
2022/09/08 19:44:28;;;;;;;6.38;2.10;;;16.90;99.90;;;;;;12435779;28;20068;-36
2022/09/08 19:50:45;;;;;;;6.90;2.05;;;16.90;99.90;;;;;;12425986;28;20057;-36
2022/09/08 19:56:53;;;;;;;3.58;1.45;;;17.00;99.90;;;;;;12430148;28;20057;-36
2022/09/08 20:03:04;;;;;;;3.38;1.30;;;17.00;99.90;;;;;;12429485;28;20054;-36
2022/09/08 20:09:14;;;;;;;4.60;1.70;;;17.00;99.90;;;;;;12430531;28;20049;-37
2022/09/08 20:15:23;;;;;;;4.72;1.50;;;16.90;99.90;;;;;;12430092;28;20038;-37
2022/09/08 20:21:51;;;;;;;3.38;1.20;;;16.80;99.90;;;;;;12432974;28;20054;-36
2022/09/08 20:28:20;;;;;;;2.03;1.10;;;16.90;99.90;;;;;;12432572;28;20050;-36
2022/09/08 20:35:02;;;;;;;2.80;1.10;;;16.80;99.90;;;;;;12435029;28;20136;-36
2022/09/08 20:41:22;;;;;;;2.50;0.98;;;16.80;99.90;;;;;;12335009;28;20517;-37
2022/09/08 20:47:31;;;;;;;6.43;1.17;;;16.80;99.90;;;;;;12435046;28;20061;-37
2022/09/08 20:54:00;;;;;;;3.08;1.10;;;16.70;99.90;;;;;;12426984;28;20046;-37
2022/09/08 21:00:15;;;;;;;3.05;1.20;;;16.70;99.90;;;;;;12425355;28;20054;-36
2022/09/08 21:06:21;;;;;;;3.75;1.38;;;16.70;99.90;;;;;;12428215;28;20053;-36
2022/09/08 21:12:24;;;;;;;2.88;1.02;;;16.60;99.90;;;;;;12417451;28;20482;-36
2022/09/08 21:18:41;;;;;;;5.95;1.23;;;16.60;99.90;;;;;;12431277;28;20058;-36
2022/09/08 21:24:59;;;;;;;2.67;1.02;;;16.50;99.90;;;;;;12428287;28;20871;-37
2022/09/08 21:31:46;;;;;;;4.05;1.10;;;16.40;99.90;;;;;;12437753;28;20049;-36
2022/09/08 21:38:14;;;;;;;2.75;1.13;;;16.40;99.90;;;;;;12436985;28;20064;-37
2022/09/08 21:44:22;;;;;;;6.03;1.63;;;16.40;99.90;;;;;;12425942;28;20042;-36
2022/09/08 21:50:39;;;;;;;2.38;1.10;;;16.40;99.90;;;;;;12438949;28;20038;-37
2022/09/08 21:56:50;;;;;;;10.57;1.40;;;16.30;99.90;;;;;;12426435;28;20056;-36
2022/09/08 22:03:13;;;;;;;3.20;1.00;;;16.30;99.90;;;;;;12426472;28;20192;-36
2022/09/08 22:09:20;;;;;;;5.18;1.27;;;16.30;99.90;;;;;;12430525;28;20046;-36
2022/09/08 22:15:34;;;;;;;5.32;1.20;;;16.30;99.90;;;;;;12440855;28;20478;-37
2022/09/08 22:21:47;;;;;;;4.03;1.08;;;16.30;99.90;;;;;;12436911;28;20057;-36
2022/09/08 22:27:52;;;;;;;2.95;0.90;;;16.20;99.90;;;;;;12436847;28;20116;-36
2022/09/08 22:34:25;;;;;;;4.40;0.90;;;16.20;99.90;;;;;;12439922;28;20046;-36
2022/09/08 22:40:49;;;;;;;4.67;0.93;;;16.10;99.90;;;;;;12374302;28;20054;-36
2022/09/08 22:47:17;;;;;;;3.47;1.10;;;16.10;99.90;;;;;;12434422;28;20061;-36
2022/09/08 22:53:34;;;;;;;2.72;0.85;;;16.00;99.90;;;;;;12440308;28;20045;-36
2022/09/08 22:59:55;;;;;;;3.85;0.77;;;16.00;99.90;;;;;;12431877;28;20057;-36
2022/09/08 23:06:18;;;;;;;3.03;0.85;;;16.00;99.90;;;;;;12425102;28;20559;-36
2022/09/08 23:12:38;;;;;;;2.30;0.70;;;16.10;99.90;;;;;;12429558;28;20077;-36
2022/09/08 23:18:48;;;;;;;3.80;0.60;;;16.00;99.90;;;;;;12440933;28;20060;-36
2022/09/08 23:25:02;;;;;;;1.67;0.70;;;15.90;99.90;;;;;;12436908;28;20061;-36
2022/09/08 23:31:11;;;;;;;2.30;0.60;;;15.90;99.90;;;;;;12433045;28;20041;-36
2022/09/08 23:37:13;;;;;;;3.78;0.68;;;15.80;99.90;;;;;;12437165;28;20414;-36
2022/09/08 23:43:26;;;;;;;3.22;0.60;;;15.80;99.90;;;;;;12432409;28;20427;-36
2022/09/08 23:49:30;;;;;;;4.23;1.00;;;15.80;99.90;;;;;;12427126;28;20089;-36
2022/09/08 23:55:35;;;;;;;3.75;0.60;;;15.80;99.90;;;;;;12436569;28;20042;-36
